Time;durP1;ratioP1;P1;durP2;ratioP2;P2;SDS_P1;SDS_P2;PMS_P1;PMS_P2;Temp;Humidity;BMP_temperature;BMP_pressure;BME280_temperature;BME280_humidity;BME280_pressure;Samples;Min_cycle;Max_cycle;Signal;HPM_P1;HPM_P2
2023/09/07 14:51:27;;;;;;;6.93;1.90;;;27.50;68.00;;;;;;4955120;28;20324;-73
2023/09/07 14:53:53;;;;;;;7.93;2.80;;;;;;;;;;4936390;28;20050;-78
2023/09/07 14:56:20;;;;;;;4.43;2.33;;;;;;;;;;4950106;28;20521;-73
2023/09/07 14:58:46;;;;;;;4.57;2.38;;;;;;;;;;4938979;28;20069;-75
2023/09/07 15:01:12;;;;;;;4.28;2.30;;;;;;;;;;4939186;28;20059;-75
2023/09/07 15:03:40;;;;;;;5.40;2.17;;;;;;;;;;4938312;28;21000;-71
2023/09/07 15:06:07;;;;;;;3.83;1.80;;;27.40;69.20;;;;;;4938852;28;20140;-76
2023/09/07 15:08:33;;;;;;;4.10;1.83;;;;;;;;;;4939236;28;20260;-75
2023/09/07 15:10:59;;;;;;;3.03;2.13;;;;;;;;;;4939167;28;20178;-72
2023/09/07 15:13:26;;;;;;;5.30;2.75;;;27.20;69.60;;;;;;4937272;28;20124;-75
2023/09/07 15:15:52;;;;;;;6.15;2.30;;;;;;;;;;4919163;28;20652;-78
2023/09/07 15:18:18;;;;;;;4.68;2.20;;;;;;;;;;4939354;28;20081;-74
2023/09/07 15:20:45;;;;;;;7.05;2.40;;;;;;;;;;4939911;28;20063;-75
2023/09/07 15:23:11;;;;;;;4.70;2.67;;;;;;;;;;4921978;28;20054;-74
2023/09/07 15:25:37;;;;;;;5.47;2.65;;;;;;;;;;4922492;28;20150;-72
2023/09/07 15:28:05;;;;;;;6.07;2.25;;;;;;;;;;4939729;28;20050;-75
2023/09/07 15:30:31;;;;;;;6.28;2.78;;;;;;;;;;4930386;28;20055;-75
2023/09/07 15:32:57;;;;;;;7.88;2.38;;;;;;;;;;4936376;28;20197;-71
2023/09/07 15:35:23;;;;;;;4.13;2.72;;;;;;;;;;4937690;28;20058;-78
2023/09/07 15:37:50;;;;;;;4.18;2.20;;;;;;;;;;4937296;28;20059;-75
2023/09/07 15:40:16;;;;;;;5.40;2.30;;;;;;;;;;4949694;28;20058;-76
2023/09/07 15:42:42;;;;;;;10.38;2.60;;;;;;;;;;4935993;28;20299;-78
2023/09/07 15:45:08;;;;;;;11.73;3.17;;;;;;;;;;4936195;28;20081;-72
2023/09/07 15:47:35;;;;;;;6.72;2.47;;;;;;;;;;4930477;28;20455;-76
2023/09/07 15:50:01;;;;;;;6.65;2.83;;;;;;;;;;4938167;28;20069;-72
2023/09/07 15:52:27;;;;;;;7.45;2.30;;;;;;;;;;4937988;28;20042;-73
2023/09/07 15:54:53;;;;;;;5.43;2.20;;;;;;;;;;4935674;28;20527;-72
2023/09/07 15:57:19;;;;;;;7.25;2.78;;;;;;;;;;4940683;28;20047;-79
2023/09/07 15:59:45;;;;;;;4.05;2.20;;;27.50;76.40;;;;;;4935995;28;20084;-77
2023/09/07 16:02:11;;;;;;;3.90;2.38;;;;;;;;;;4935763;28;20834;-71
2023/09/07 16:04:38;;;;;;;4.07;2.17;;;;;;;;;;4942391;28;20575;-73
2023/09/07 16:07:04;;;;;;;4.80;2.47;;;;;;;;;;4950221;28;20879;-76
2023/09/07 16:09:31;;;;;;;4.40;2.40;;;26.60;73.40;;;;;;4935023;28;20130;-74
2023/09/07 16:11:57;;;;;;;5.93;2.42;;;;;;;;;;4933976;28;20146;-73
2023/09/07 16:14:23;;;;;;;5.45;3.08;;;;;;;;;;4934258;28;20125;-69
2023/09/07 16:16:49;;;;;;;3.08;2.20;;;;;;;;;;4922649;28;20081;-74
2023/09/07 16:19:15;;;;;;;7.28;3.10;;;;;;;;;;4938445;28;20066;-77
2023/09/07 16:21:41;;;;;;;7.97;2.95;;;;;;;;;;4935736;28;20472;-74
2023/09/07 16:24:10;;;;;;;3.90;2.30;;;;;;;;;;4920044;28;20057;-75
2023/09/07 16:26:36;;;;;;;4.68;2.08;;;;;;;;;;4936599;28;20066;-74
2023/09/07 16:29:02;;;;;;;5.97;2.40;;;;;;;;;;4936619;28;20054;-75
2023/09/07 16:31:29;;;;;;;4.07;2.60;;;;;;;;;;4933877;28;20055;-76
2023/09/07 16:33:55;;;;;;;6.95;2.95;;;;;;;;;;4936577;28;20061;-69
2023/09/07 16:36:21;;;;;;;4.55;2.70;;;;;;;;;;4932146;28;20566;-70
2023/09/07 16:38:47;;;;;;;9.38;5.03;;;;;;;;;;4939046;28;20098;-75
2023/09/07 16:41:13;;;;;;;5.10;2.80;;;;;;;;;;4944511;28;20054;-76
2023/09/07 16:43:39;;;;;;;5.97;2.97;;;;;;;;;;4933452;28;20069;-74
2023/09/07 16:46:05;;;;;;;8.10;2.75;;;25.70;83.20;;;;;;4939755;28;20149;-77
2023/09/07 16:48:31;;;;;;;7.35;2.83;;;;;;;;;;4934742;28;20050;-73
2023/09/07 16:50:57;;;;;;;5.63;3.00;;;;;;;;;;4936855;28;20058;-71
2023/09/07 16:53:24;;;;;;;7.78;3.00;;;;;;;;;;4936809;28;20054;-77
2023/09/07 16:55:50;;;;;;;6.43;3.03;;;;;;;;;;4920610;28;20046;-76
2023/09/07 16:58:16;;;;;;;6.25;2.85;;;25.10;80.30;;;;;;4946939;28;20130;-76
2023/09/07 17:00:43;;;;;;;5.57;2.72;;;;;;;;;;4934530;28;20097;-76
2023/09/07 17:03:09;;;;;;;4.07;2.55;;;;;;;;;;4940725;28;20691;-75
2023/09/07 17:05:35;;;;;;;4.38;3.00;;;;;;;;;;4940569;28;20683;-78
2023/09/07 17:08:03;;;;;;;7.13;2.83;;;24.70;82.30;;;;;;4940339;28;20063;-74
2023/09/07 17:10:30;;;;;;;5.68;3.10;;;;;;;;;;4936315;28;20098;-75
2023/09/07 17:12:56;;;;;;;4.43;2.90;;;24.50;83.00;;;;;;4933493;28;20501;-74
2023/09/07 17:15:25;;;;;;;5.50;2.80;;;;;;;;;;4934029;28;20063;-74
2023/09/07 17:17:51;;;;;;;5.95;2.72;;;24.20;84.00;;;;;;4939924;28;20054;-75
2023/09/07 17:20:18;;;;;;;5.18;3.33;;;;;;;;;;4958494;28;20066;-76
2023/09/07 17:22:47;;;;;;;4.65;3.13;;;;;;;;;;4934737;28;20172;-75
2023/09/07 17:25:14;;;;;;;6.50;3.00;;;23.90;85.30;;;;;;4928056;28;20063;-76
2023/09/07 17:27:40;;;;;;;5.13;3.40;;;;;;;;;;4940195;28;20055;-77
2023/09/07 17:30:07;;;;;;;5.30;2.80;;;;;;;;;;4940063;28;20051;-75
2023/09/07 17:32:33;;;;;;;5.43;3.47;;;;;;;;;;4956210;28;20046;-74
2023/09/07 17:35:03;;;;;;;6.35;2.80;;;23.20;86.00;;;;;;4938403;28;20583;-74
2023/09/07 17:37:29;;;;;;;9.77;3.45;;;;;;;;;;4937010;28;20067;-75
2023/09/07 17:39:55;;;;;;;7.70;3.13;;;;;;;;;;4917582;28;20067;-76
2023/09/07 17:42:22;;;;;;;6.43;3.25;;;23.30;86.80;;;;;;4957459;28;20082;-75
2023/09/07 17:44:51;;;;;;;10.20;3.92;;;23.20;86.90;;;;;;4940646;28;20047;-74
2023/09/07 17:47:37;;;;;;;5.80;2.88;;;;;;;;;;4937009;28;20054;-75
2023/09/07 17:50:03;;;;;;;4.78;2.92;;;23.00;87.50;;;;;;4938177;28;20063;-74
2023/09/07 17:52:30;;;;;;;5.00;3.05;;;;;;;;;;4938200;28;20940;-75
2023/09/07 17:54:56;;;;;;;6.18;3.42;;;;;;;;;;4938754;28;20915;-77
2023/09/07 17:57:23;;;;;;;5.40;3.15;;;;;;;;;;4955086;28;20054;-74
2023/09/07 17:59:49;;;;;;;5.30;3.50;;;;;;;;;;4938404;28;20055;-75
2023/09/07 18:02:23;;;;;;;7.47;3.60;;;22.80;88.30;;;;;;4948941;28;20059;-78
2023/09/07 18:04:56;;;;;;;7.65;3.40;;;22.60;88.90;;;;;;4922098;28;20066;-69
2023/09/07 18:07:30;;;;;;;4.80;3.00;;;;;;;;;;4932439;28;20059;-76
2023/09/07 18:09:56;;;;;;;5.35;3.45;;;;;;;;;;4937801;28;20082;-74
2023/09/07 18:12:23;;;;;;;8.52;2.95;;;22.00;91.80;;;;;;4936334;28;20153;-74
2023/09/07 18:14:49;;;;;;;8.15;3.85;;;;;;;;;;4952754;28;20890;-74
2023/09/07 18:17:15;;;;;;;8.73;3.40;;;;;;;;;;4939854;28;20113;-74
2023/09/07 18:19:41;;;;;;;6.70;3.58;;;;;;;;;;4934570;28;20063;-76
2023/09/07 18:22:08;;;;;;;6.32;2.90;;;;;;;;;;4941051;28;20519;-74
2023/09/07 18:24:35;;;;;;;5.55;3.13;;;;;;;;;;4938141;28;20501;-75
2023/09/07 18:27:01;;;;;;;5.88;3.70;;;;;;;;;;4940636;28;20284;-74
2023/09/07 18:29:27;;;;;;;9.25;3.33;;;;;;;;;;4941019;28;20062;-76
2023/09/07 18:31:54;;;;;;;5.93;3.72;;;;;;;;;;4940334;28;20061;-74
2023/09/07 18:34:20;;;;;;;6.68;3.38;;;;;;;;;;4955169;28;20818;-76
2023/09/07 18:36:46;;;;;;;5.55;3.67;;;;;;;;;;4932684;28;20626;-77
2023/09/07 18:39:12;;;;;;;7.15;3.75;;;;;;;;;;4934758;28;20059;-75
2023/09/07 18:41:38;;;;;;;6.68;3.92;;;;;;;;;;4934266;28;20153;-75
2023/09/07 18:44:05;;;;;;;7.60;4.60;;;;;;;;;;4937127;28;20058;-78
2023/09/07 18:46:31;;;;;;;6.25;4.43;;;;;;;;;;4940410;28;20047;-80
2023/09/07 18:48:57;;;;;;;8.45;5.45;;;;;;;;;;4938552;28;20058;-75
2023/09/07 18:51:23;;;;;;;7.13;5.35;;;;;;;;;;4938893;28;20070;-74
2023/09/07 19:23:28;;;;;;;9.35;5.78;;;;;;;;;;4991799;28;20569;-80
2023/09/07 19:25:54;;;;;;;9.65;6.40;;;;;;;;;;4939055;28;20070;-79
2023/09/07 19:28:20;;;;;;;10.70;6.75;;;;;;;;;;4958481;28;20064;-83
2023/09/07 19:30:46;;;;;;;10.90;6.03;;;;;;;;;;4958536;28;20046;-80
2023/09/07 19:33:12;;;;;;;17.17;6.80;;;;;;;;;;4945398;28;20125;-80
2023/09/07 19:35:39;;;;;;;12.68;6.70;;;;;;;;;;4958332;28;20061;-77
2023/09/07 19:38:05;;;;;;;9.80;7.10;;;;;;;;;;4956813;28;20884;-76
2023/09/07 19:40:31;;;;;;;13.25;6.65;;;;;;;;;;4950587;28;20050;-77
2023/09/07 19:42:57;;;;;;;11.20;6.30;;;;;;;;;;4958901;28;20093;-78
2023/09/07 19:45:23;;;;;;;8.40;6.55;;;;;;;;;;4947834;28;20148;-84
2023/09/07 19:47:50;;;;;;;10.75;7.03;;;;;;;;;;4937863;28;20097;-75
2023/09/07 19:50:16;;;;;;;9.55;6.68;;;;;;;;;;4941817;28;20681;-77
2023/09/07 19:52:45;;;;;;;9.25;6.38;;;;;;;;;;4955122;28;20132;-76
2023/09/07 19:55:13;;;;;;;10.05;6.80;;;;;;;;;;4970221;28;20146;-78
2023/09/07 19:57:40;;;;;;;7.93;5.78;;;;;;;;;;4957300;28;20691;-75
2023/09/07 20:00:07;;;;;;;8.48;5.28;;;;;;;;;;4940932;28;20058;-76
2023/09/07 20:02:33;;;;;;;9.93;6.25;;;;;;;;;;4958348;28;20054;-80
2023/09/07 20:04:59;;;;;;;8.50;5.20;;;;;;;;;;4956733;28;20058;-75
2023/09/07 20:07:26;;;;;;;7.22;5.65;;;;;;;;;;4941820;28;20432;-75
2023/09/07 20:09:52;;;;;;;8.05;6.00;;;;;;;;;;4957223;28;20058;-78
2023/09/07 20:12:19;;;;;;;10.10;6.85;;;;;;;;;;4932938;28;20524;-80
2023/09/07 20:14:45;;;;;;;7.45;6.22;;;;;;;;;;4955145;28;20062;-77
2023/09/07 20:17:11;;;;;;;9.02;6.32;;;;;;;;;;4955819;28;20058;-76
2023/09/07 20:19:44;;;;;;;8.50;6.05;;;19.60;99.20;;;;;;4957039;28;20098;-80
2023/09/07 20:22:14;;;;;;;7.75;6.18;;;19.60;99.30;;;;;;4948869;28;20061;-76
2023/09/07 20:24:41;;;;;;;8.75;6.97;;;;;;;;;;4947716;28;20055;-80
2023/09/07 20:27:07;;;;;;;8.45;6.65;;;;;;;;;;4957943;28;20737;-80
2023/09/07 20:29:34;;;;;;;10.38;6.88;;;;;;;;;;4958563;28;20050;-82
2023/09/07 20:32:00;;;;;;;10.57;7.45;;;;;;;;;;4954293;28;20134;-76
2023/09/07 20:34:26;;;;;;;9.18;6.75;;;;;;;;;;4944560;28;20058;-80
2023/09/07 20:36:52;;;;;;;10.45;6.85;;;;;;;;;;4960042;28;20050;-78
2023/09/07 20:39:18;;;;;;;8.05;6.53;;;;;;;;;;4960888;28;20054;-77
2023/09/07 20:41:44;;;;;;;8.27;6.47;;;;;;;;;;4961844;28;20058;-79
2023/09/07 20:44:10;;;;;;;9.05;6.72;;;;;;;;;;4943776;28;20523;-79
2023/09/07 20:46:36;;;;;;;9.50;6.63;;;;;;;;;;4959907;28;20161;-78
2023/09/07 20:49:03;;;;;;;7.97;5.68;;;;;;;;;;4961564;28;20046;-81
2023/09/07 20:51:29;;;;;;;6.68;5.97;;;;;;;;;;4941013;28;20057;-76
2023/09/07 20:53:55;;;;;;;8.73;6.38;;;;;;;;;;4956746;28;20059;-77
2023/09/07 20:56:21;;;;;;;7.05;5.63;;;;;;;;;;4959531;28;20062;-74
2023/09/07 20:58:48;;;;;;;8.50;6.13;;;;;;;;;;4946024;28;20062;-74
2023/09/07 21:01:14;;;;;;;9.05;6.47;;;;;;;;;;4961687;28;20046;-74
2023/09/07 21:03:40;;;;;;;8.02;5.78;;;;;;;;;;4977348;28;20150;-75
2023/09/07 21:06:06;;;;;;;8.45;6.03;;;;;;;;;;4954594;28;20850;-76
2023/09/07 21:08:32;;;;;;;7.97;5.93;;;;;;;;;;4960513;28;20132;-75
2023/09/07 21:10:59;;;;;;;8.25;6.10;;;;;;;;;;4957985;28;20531;-79
2023/09/07 21:13:26;;;;;;;10.73;6.05;;;;;;;;;;4595592;28;9999650;-75
2023/09/07 21:15:52;;;;;;;8.52;5.88;;;;;;;;;;4958817;28;20474;-76
2023/09/07 21:18:18;;;;;;;8.73;5.60;;;;;;;;;;4941164;28;20051;-77
2023/09/07 21:20:46;;;;;;;8.70;6.05;;;;;;;;;;4958551;28;20186;-78
2023/09/07 21:23:12;;;;;;;8.07;6.15;;;18.60;99.90;;;;;;4947908;28;20059;-77
2023/09/07 21:25:38;;;;;;;7.38;6.10;;;;;;;;;;4940660;28;20775;-77
2023/09/07 21:28:04;;;;;;;10.40;6.60;;;;;;;;;;4958535;28;20068;-76
2023/09/07 21:30:30;;;;;;;10.02;6.40;;;;;;;;;;4967742;28;20062;-79
2023/09/07 21:32:57;;;;;;;7.85;6.75;;;18.30;99.90;;;;;;4958656;28;20086;-75
2023/09/07 21:35:23;;;;;;;9.52;7.00;;;;;;;;;;4958179;28;20062;-77
2023/09/07 21:37:49;;;;;;;10.55;6.10;;;;;;;;;;4956669;28;20081;-79
2023/09/07 21:40:15;;;;;;;9.27;6.47;;;18.30;99.90;;;;;;4612259;28;10000124;-78
2023/09/07 21:42:41;;;;;;;11.90;6.70;;;;;;;;;;4956834;28;20052;-76
2023/09/07 21:45:07;;;;;;;9.32;7.00;;;18.60;99.90;;;;;;4939748;28;20106;-78
2023/09/07 21:47:34;;;;;;;9.30;6.53;;;;;;;;;;4950516;28;20054;-77
2023/09/07 21:50:00;;;;;;;10.13;5.90;;;;;;;;;;4957999;28;20053;-78
2023/09/07 21:52:26;;;;;;;10.85;7.20;;;;;;;;;;4957832;28;20592;-76
2023/09/07 21:54:52;;;;;;;10.57;7.10;;;;;;;;;;4938814;28;20054;-76
2023/09/07 21:57:23;;;;;;;9.30;7.55;;;;;;;;;;4956001;28;20073;-77
2023/09/07 21:59:50;;;;;;;11.93;7.70;;;;;;;;;;4957849;28;20672;-77
2023/09/07 22:02:17;;;;;;;8.00;7.20;;;;;;;;;;4951633;28;20939;-74
2023/09/07 22:04:43;;;;;;;11.48;7.22;;;;;;;;;;4957582;28;20054;-76
2023/09/07 22:07:09;;;;;;;10.95;7.50;;;;;;;;;;4960088;28;20079;-76
2023/09/07 22:09:35;;;;;;;10.18;7.57;;;;;;;;;;4942293;28;20058;-76
2023/09/07 22:12:01;;;;;;;7.95;7.07;;;;;;;;;;4954832;28;20060;-76
2023/09/07 22:14:27;;;;;;;8.80;7.82;;;;;;;;;;4958560;28;20057;-76
2023/09/07 22:16:54;;;;;;;12.60;7.45;;;;;;;;;;4951487;28;20214;-76
2023/09/07 22:19:20;;;;;;;10.80;7.65;;;;;;;;;;4956967;28;20050;-75
2023/09/07 22:21:46;;;;;;;11.20;7.75;;;;;;;;;;4955766;28;20538;-78
2023/09/07 22:24:32;;;;;;;12.48;7.45;;;;;;;;;;4910863;29;20059;-77
2023/09/07 22:26:59;;;;;;;8.88;7.97;;;;;;;;;;4918038;28;20066;-76
2023/09/07 22:29:25;;;;;;;9.60;8.63;;;;;;;;;;4913465;28;20274;-77
2023/09/07 22:31:51;;;;;;;9.98;7.60;;;;;;;;;;4915086;28;20516;-77
2023/09/07 22:34:17;;;;;;;9.52;8.13;;;;;;;;;;4918143;29;20062;-76
2023/09/07 22:36:43;;;;;;;9.85;8.05;;;;;;;;;;4917205;29;20217;-76
2023/09/07 22:39:12;;;;;;;11.77;8.43;;;;;;;;;;4916698;29;20622;-77
2023/09/07 22:41:39;;;;;;;10.68;9.07;;;;;;;;;;4911874;28;20948;-76
2023/09/07 22:44:06;;;;;;;10.57;8.40;;;17.80;99.90;;;;;;4908492;29;20115;-77
2023/09/07 22:46:32;;;;;;;10.65;8.05;;;;;;;;;;4916911;28;20496;-75
2023/09/07 22:48:59;;;;;;;11.73;8.48;;;;;;;;;;4909624;29;20057;-75
2023/09/07 22:51:26;;;;;;;10.93;8.30;;;;;;;;;;4917045;29;20054;-74
2023/09/07 22:53:52;;;;;;;11.52;8.65;;;;;;;;;;4917056;29;20139;-77
2023/09/07 22:56:18;;;;;;;13.15;8.95;;;;;;;;;;4948315;28;20057;-77
2023/09/07 22:58:44;;;;;;;10.82;8.57;;;;;;;;;;4954342;28;20063;-77
2023/09/07 23:01:11;;;;;;;12.60;8.80;;;;;;;;;;4948653;28;20051;-76
2023/09/07 23:03:37;;;;;;;13.38;8.63;;;;;;;;;;4957745;28;20682;-77
2023/09/07 23:06:04;;;;;;;11.45;9.52;;;;;;;;;;4931465;28;20420;-75
2023/09/07 23:08:31;;;;;;;9.52;8.43;;;;;;;;;;4974458;28;20074;-75
2023/09/07 23:10:57;;;;;;;9.38;8.25;;;17.10;99.90;;;;;;4958546;28;20062;-74
2023/09/07 23:13:24;;;;;;;12.27;9.20;;;;;;;;;;4952339;28;20810;-75
2023/09/07 23:15:50;;;;;;;11.05;9.20;;;;;;;;;;4941715;28;20054;-76
2023/09/07 23:18:16;;;;;;;10.43;9.00;;;;;;;;;;4956873;28;20133;-76
2023/09/07 23:20:43;;;;;;;13.07;10.02;;;;;;;;;;4961930;28;20058;-76
2023/09/07 23:23:09;;;;;;;12.23;10.10;;;;;;;;;;4941853;28;20082;-78
2023/09/07 23:25:38;;;;;;;14.07;9.93;;;;;;;;;;4957951;28;20065;-77
2023/09/07 23:28:04;;;;;;;11.07;9.50;;;;;;;;;;4957922;28;20050;-76
2023/09/07 23:30:31;;;;;;;11.45;9.68;;;;;;;;;;4957112;28;20053;-77
2023/09/07 23:32:59;;;;;;;11.50;9.60;;;;;;;;;;4953435;28;20117;-78
2023/09/07 23:35:25;;;;;;;11.30;9.85;;;;;;;;;;4957396;28;20069;-79
2023/09/07 23:37:51;;;;;;;12.07;9.93;;;;;;;;;;4953474;28;20129;-78
2023/09/07 23:40:17;;;;;;;12.02;8.75;;;;;;;;;;4961937;28;20046;-77
2023/09/07 23:42:44;;;;;;;11.20;9.30;;;;;;;;;;4952465;28;20094;-79
2023/09/07 23:45:10;;;;;;;13.23;9.13;;;16.60;99.90;;;;;;4953612;28;20058;-78
